createdAt,value
2023-05-09T10:07:37.050Z,17.12
2023-05-09T10:09:41.061Z,17.15
2023-05-09T10:11:44.516Z,17.20
2023-05-09T10:13:48.002Z,17.25
2023-05-09T10:15:53.854Z,17.36
2023-05-09T10:17:59.457Z,17.41
2023-05-09T10:20:05.653Z,17.41
2023-05-09T10:22:13.409Z,17.34
2023-05-09T10:24:22.055Z,17.15
2023-05-09T10:26:29.109Z,17.01
2023-05-09T10:28:33.876Z,16.99
2023-05-09T10:30:42.244Z,17.15
2023-05-09T10:32:53.461Z,17.29
2023-05-09T10:35:07.046Z,17.47
2023-05-09T10:37:11.216Z,17.64
2023-05-09T10:39:15.510Z,17.81
2023-05-09T10:41:22.162Z,17.90
2023-05-09T10:43:25.994Z,17.96
2023-05-09T10:45:30.042Z,18.00
2023-05-09T10:47:33.928Z,18.07
2023-05-09T10:49:37.979Z,18.15
2023-05-09T10:51:42.085Z,18.20
2023-05-09T10:53:48.098Z,18.23
2023-05-09T10:55:57.199Z,18.23
2023-05-09T10:58:19.915Z,18.21
2023-05-09T11:00:26.585Z,18.35
2023-05-09T11:02:32.673Z,18.43
2023-05-09T11:04:36.250Z,18.39
2023-05-09T11:06:51.561Z,18.41
2023-05-09T11:08:56.286Z,18.49
2023-05-09T11:11:01.128Z,18.61
2023-05-09T11:13:06.240Z,18.69
2023-05-09T11:15:11.253Z,18.78
2023-05-09T11:17:16.612Z,18.92
2023-05-09T11:19:35.702Z,19.11
2023-05-09T11:21:39.471Z,19.25
2023-05-09T11:23:43.273Z,19.33
2023-05-09T11:25:54.078Z,19.39
2023-05-09T11:28:01.728Z,19.35
2023-05-09T11:30:09.178Z,19.26
2023-05-09T11:32:16.495Z,19.14
2023-05-09T11:34:21.860Z,18.99
2023-05-09T11:36:32.307Z,18.93
2023-05-09T11:38:43.084Z,18.93
2023-05-09T11:40:46.968Z,18.94
2023-05-09T11:42:55.420Z,18.89
2023-05-09T11:45:01.000Z,18.80
2023-05-09T11:47:06.342Z,18.71
2023-05-09T11:49:11.986Z,18.68
2023-05-09T11:51:19.529Z,18.67
2023-05-09T11:53:23.368Z,18.65
2023-05-09T11:55:30.269Z,18.79
2023-05-09T11:57:34.120Z,18.99
2023-05-09T11:59:38.419Z,19.13
2023-05-09T12:01:42.933Z,19.32
2023-05-09T12:03:48.460Z,19.31
2023-05-09T12:05:52.490Z,19.21
2023-05-09T12:07:57.149Z,19.28
2023-05-09T12:10:02.857Z,19.32
2023-05-09T12:12:12.722Z,19.36
2023-05-09T12:14:28.505Z,19.23
2023-05-09T12:16:32.220Z,19.07
2023-05-09T12:18:36.498Z,18.93
2023-05-09T12:20:50.644Z,18.75
2023-05-09T12:22:56.143Z,18.61
2023-05-09T12:25:03.779Z,18.49
2023-05-09T12:27:08.173Z,18.36
2023-05-09T12:29:12.858Z,18.30
2023-05-09T12:31:16.474Z,18.26
2023-05-09T12:33:21.472Z,18.36
2023-05-09T12:35:26.221Z,18.43
2023-05-09T12:37:33.906Z,18.47
2023-05-09T12:39:37.593Z,18.47
2023-05-09T12:41:57.475Z,18.47
2023-05-09T12:44:05.833Z,18.61
2023-05-09T12:46:09.695Z,18.66
2023-05-09T12:48:13.804Z,18.64
2023-05-09T12:50:17.563Z,18.59
2023-05-09T12:52:21.877Z,18.57
2023-05-09T12:54:28.819Z,18.52
2023-05-09T12:56:35.841Z,18.52
2023-05-09T12:58:39.785Z,18.44
2023-05-09T13:00:44.942Z,18.30
2023-05-09T13:02:54.023Z,18.10
2023-05-09T13:05:11.232Z,17.97
2023-05-09T13:07:15.020Z,17.82
2023-05-09T13:09:19.654Z,17.66
2023-05-09T13:11:25.998Z,17.52
2023-05-09T13:13:30.481Z,17.49
2023-05-09T13:15:35.365Z,17.41
2023-05-09T13:17:39.891Z,17.19
2023-05-09T13:19:43.739Z,17.00
2023-05-09T13:21:47.650Z,16.95
2023-05-09T13:23:52.345Z,16.95
2023-05-09T13:25:56.023Z,17.00
2023-05-09T13:28:01.974Z,17.13
2023-05-09T13:30:08.361Z,17.27
2023-05-09T13:32:12.496Z,17.28
2023-05-09T13:34:17.076Z,17.29
2023-05-09T13:36:21.051Z,17.31
2023-05-09T13:38:25.818Z,17.21
2023-05-09T13:40:29.978Z,17.02
2023-05-09T13:42:35.783Z,17.05
2023-05-09T13:44:42.159Z,17.15
2023-05-09T13:46:47.381Z,17.28
2023-05-09T13:48:51.235Z,17.40
2023-05-09T13:50:57.895Z,17.51
2023-05-09T13:53:02.161Z,17.61
2023-05-09T13:55:06.385Z,17.68
2023-05-09T13:57:10.220Z,17.77
2023-05-09T13:59:14.465Z,17.79
2023-05-09T14:01:19.648Z,17.77
2023-05-09T14:03:27.249Z,17.79
2023-05-09T14:05:32.705Z,17.75
2023-05-09T14:07:36.796Z,17.71
2023-05-09T14:09:40.717Z,17.69
2023-05-09T14:11:44.629Z,17.68
2023-05-09T14:13:48.426Z,17.69
2023-05-09T14:15:53.175Z,17.73
2023-05-09T14:17:58.537Z,17.76
2023-05-09T14:20:02.810Z,17.72
2023-05-09T14:22:06.539Z,17.60
2023-05-09T14:24:11.757Z,17.41
2023-05-09T14:26:16.874Z,17.14
2023-05-09T14:28:20.473Z,16.90
2023-05-09T14:30:25.888Z,16.68
2023-05-09T14:32:29.983Z,16.44
2023-05-09T14:34:36.132Z,16.24
2023-05-09T14:36:40.097Z,16.08
2023-05-09T14:38:44.524Z,15.89
2023-05-09T14:40:48.234Z,15.66
2023-05-09T14:42:52.219Z,15.47
2023-05-09T14:44:56.224Z,15.34
2023-05-09T14:47:02.504Z,15.28
2023-05-09T14:49:07.055Z,15.30
2023-05-09T14:51:12.622Z,15.38
2023-05-09T14:53:16.716Z,15.51
2023-05-09T14:55:23.154Z,15.54
2023-05-09T14:57:27.304Z,15.61
2023-05-09T14:59:33.610Z,15.73
2023-05-09T15:01:41.104Z,15.84
2023-05-09T15:03:45.248Z,15.82
2023-05-09T15:05:52.852Z,15.82
2023-05-09T15:07:58.400Z,15.78
2023-05-09T15:10:05.538Z,15.72
2023-05-09T15:12:11.449Z,15.70
2023-05-09T15:14:21.092Z,15.72
2023-05-09T15:16:26.962Z,15.72
2023-05-09T15:18:31.944Z,15.80
2023-05-09T15:20:36.159Z,15.89
2023-05-09T15:22:40.270Z,16.05
2023-05-09T15:24:46.012Z,16.27
2023-05-09T15:26:52.883Z,16.39
2023-05-09T15:28:57.422Z,16.39
2023-05-09T15:31:02.754Z,16.35
2023-05-09T15:33:09.438Z,16.33
2023-05-09T15:35:14.510Z,16.28
2023-05-09T15:37:22.766Z,16.24
2023-05-09T15:39:27.621Z,16.17
2023-05-09T15:41:34.468Z,16.11
2023-05-09T15:43:38.767Z,16.04
2023-05-09T15:45:46.012Z,16.02
2023-05-09T15:47:49.790Z,16.02
2023-05-09T15:49:54.678Z,16.04
2023-05-09T15:52:00.561Z,16.06
2023-05-09T15:54:05.422Z,16.07
2023-05-09T15:56:10.952Z,16.11
2023-05-09T15:58:16.833Z,16.18
2023-05-09T16:00:20.962Z,16.29
2023-05-09T16:02:26.089Z,16.40
2023-05-09T16:04:31.164Z,16.50
2023-05-09T16:06:34.432Z,16.58
2023-05-09T16:08:38.194Z,16.66
2023-05-09T16:10:42.266Z,16.70
2023-05-09T16:12:47.213Z,16.72
2023-05-09T16:14:52.861Z,16.69
2023-05-09T16:16:56.657Z,16.64
2023-05-09T16:19:00.456Z,16.54
2023-05-09T16:21:04.556Z,16.45
2023-05-09T16:23:08.469Z,16.34
2023-05-09T16:25:14.124Z,16.26
2023-05-09T16:27:18.516Z,16.18
2023-05-09T16:29:23.049Z,16.13
2023-05-09T16:31:28.472Z,16.06
2023-05-09T16:33:33.850Z,16.00
2023-05-09T16:35:37.518Z,15.95
2023-05-09T16:37:41.333Z,15.86
2023-05-09T16:39:45.738Z,15.80
2023-05-09T16:41:49.332Z,15.67
2023-05-09T16:43:53.231Z,15.45
2023-05-09T16:45:57.360Z,15.20
2023-05-09T16:48:02.737Z,15.04
2023-05-09T16:50:10.959Z,14.92
2023-05-09T16:52:15.742Z,14.83
2023-05-09T16:54:19.822Z,14.76
2023-05-09T16:56:24.369Z,14.68
2023-05-09T16:58:28.212Z,14.63
2023-05-09T17:00:32.382Z,14.56
2023-05-09T17:02:37.390Z,14.53
2023-05-09T17:04:43.802Z,14.50
2023-05-09T17:06:48.099Z,14.46
2023-05-09T17:08:51.972Z,14.47
2023-05-09T17:10:56.604Z,14.48
2023-05-09T17:13:00.503Z,14.52
2023-05-09T17:15:04.456Z,14.55
2023-05-09T17:17:08.312Z,14.60
2023-05-09T17:19:12.211Z,14.63
2023-05-09T17:21:17.792Z,14.67
2023-05-09T17:23:21.689Z,14.68
2023-05-09T17:25:25.779Z,14.69
2023-05-09T17:27:29.630Z,14.71
2023-05-09T17:29:33.504Z,14.75
2023-05-09T17:31:37.353Z,14.79
2023-05-09T17:33:42.038Z,14.85
2023-05-09T17:35:47.276Z,14.90
2023-05-09T17:37:52.610Z,14.96
2023-05-09T17:39:56.049Z,15.00
2023-05-09T17:41:59.812Z,15.06
2023-05-09T17:44:03.700Z,15.10
2023-05-09T17:46:08.521Z,15.19
2023-05-09T17:48:11.709Z,15.33
2023-05-09T17:50:17.330Z,15.49
2023-05-09T17:52:22.109Z,15.65
2023-05-09T17:54:28.889Z,15.79
2023-05-09T17:56:33.498Z,15.90
2023-05-09T17:58:37.577Z,15.98
2023-05-09T18:00:42.001Z,16.03
2023-05-09T18:02:46.601Z,16.05
2023-05-09T18:04:50.931Z,16.05
2023-05-09T18:06:57.282Z,15.99
2023-05-09T18:09:01.084Z,15.89
2023-05-09T18:11:06.049Z,15.83
2023-05-09T18:13:10.221Z,15.74
2023-05-09T18:15:15.791Z,15.67
2023-05-09T18:17:19.338Z,15.61
2023-05-09T18:19:23.395Z,15.55
2023-05-09T18:21:27.401Z,15.50
2023-05-09T18:23:31.328Z,15.47
2023-05-09T18:25:35.382Z,15.44
2023-05-09T18:27:40.388Z,15.41
2023-05-09T18:29:47.232Z,15.34
2023-05-09T18:31:50.988Z,15.30
2023-05-09T18:33:54.758Z,15.24
2023-05-09T18:35:58.536Z,15.21
2023-05-09T18:38:02.378Z,15.18
2023-05-09T18:40:07.360Z,15.18
2023-05-09T18:42:10.542Z,15.19
2023-05-09T18:44:15.572Z,15.30
2023-05-09T18:46:21.859Z,15.38
2023-05-09T18:48:28.614Z,15.42
2023-05-09T18:50:33.683Z,15.45
2023-05-09T18:52:38.895Z,15.39
2023-05-09T18:54:50.305Z,15.31
2023-05-09T18:56:53.984Z,15.26
2023-05-09T18:58:57.999Z,15.21
2023-05-09T19:01:04.412Z,15.13
2023-05-09T19:03:08.556Z,15.08
2023-05-09T19:05:12.869Z,15.04
2023-05-09T19:07:18.720Z,15.05
2023-05-09T19:09:24.213Z,15.06
2023-05-09T19:11:30.085Z,15.09
2023-05-09T19:13:38.836Z,15.07
2023-05-09T19:15:43.701Z,15.06
2023-05-09T19:17:48.778Z,15.07
2023-05-09T19:19:52.674Z,15.06
2023-05-09T19:21:56.794Z,15.02
2023-05-09T19:24:01.182Z,14.95
2023-05-09T19:26:05.555Z,14.86
2023-05-09T19:28:09.246Z,14.77
2023-05-09T19:30:16.490Z,14.70
2023-05-09T19:32:20.482Z,14.62
2023-05-09T19:34:27.334Z,14.52
2023-05-09T19:36:31.672Z,14.46
2023-05-09T19:38:35.443Z,14.38
2023-05-09T19:40:41.640Z,14.30
2023-05-09T19:42:45.392Z,14.19
2023-05-09T19:44:49.633Z,14.12
2023-05-09T19:46:53.456Z,14.05
2023-05-09T19:48:57.210Z,14.00
2023-05-09T19:51:03.469Z,13.96
2023-05-09T19:53:07.119Z,13.88
2023-05-09T19:55:11.844Z,13.84
2023-05-09T19:57:16.612Z,13.77
2023-05-09T19:59:20.798Z,13.72
2023-05-09T20:01:25.418Z,13.68
2023-05-09T20:03:29.624Z,13.63
2023-05-09T20:05:33.538Z,13.58
2023-05-09T20:07:38.747Z,13.53
2023-05-09T20:09:42.808Z,13.49
2023-05-09T20:11:46.449Z,13.45
2023-05-09T20:13:50.195Z,13.41
2023-05-09T20:15:54.033Z,13.37
2023-05-09T20:17:58.765Z,13.34
2023-05-09T20:20:04.399Z,13.30
2023-05-09T20:22:09.620Z,13.27
2023-05-09T20:24:16.164Z,13.23
2023-05-09T20:26:20.497Z,13.19
2023-05-09T20:28:24.368Z,13.16
2023-05-09T20:30:27.890Z,13.13
2023-05-09T20:32:41.657Z,13.10
2023-05-09T20:34:46.194Z,13.05
2023-05-09T20:36:53.873Z,13.02
2023-05-09T20:38:58.157Z,12.99
2023-05-09T20:41:05.991Z,12.97
2023-05-09T20:43:10.864Z,12.90
2023-05-09T20:45:16.165Z,12.86
2023-05-09T20:47:19.969Z,12.82
2023-05-09T20:49:25.130Z,12.78
2023-05-09T20:51:31.378Z,12.73
2023-05-09T20:53:38.840Z,12.70
2023-05-09T20:55:42.529Z,12.68
2023-05-09T20:57:47.738Z,12.66
2023-05-09T20:59:51.487Z,12.64
2023-05-09T21:01:57.163Z,12.61
2023-05-09T21:04:01.593Z,12.57
2023-05-09T21:06:08.946Z,12.54
2023-05-09T21:08:13.170Z,12.50
2023-05-09T21:10:18.649Z,12.49
2023-05-09T21:12:24.260Z,12.47
2023-05-09T21:14:32.688Z,12.45
2023-05-09T21:16:37.460Z,12.43
2023-05-09T21:18:41.618Z,12.43
2023-05-09T21:20:46.861Z,12.40
2023-05-09T21:22:50.706Z,12.37
2023-05-09T21:24:54.687Z,12.33
2023-05-09T21:27:00.005Z,12.32
2023-05-09T21:29:04.086Z,12.30
2023-05-09T21:31:11.451Z,12.28
2023-05-09T21:33:16.016Z,12.26
2023-05-09T21:35:19.864Z,12.25
2023-05-09T21:37:24.854Z,12.21
2023-05-09T21:39:28.769Z,12.15
2023-05-09T21:41:32.301Z,12.13
2023-05-09T21:43:36.369Z,12.10
2023-05-09T21:45:39.921Z,12.07
2023-05-09T21:47:45.059Z,12.06
2023-05-09T21:49:49.281Z,12.05
2023-05-09T21:51:53.586Z,12.04
2023-05-09T21:53:57.494Z,12.02
2023-05-09T21:56:03.539Z,12.03
2023-05-09T21:58:12.620Z,12.02
2023-05-09T22:00:18.198Z,12.03
2023-05-09T22:02:23.109Z,12.01
2023-05-09T22:04:28.531Z,12.00
2023-05-09T22:06:32.656Z,12.00
2023-05-09T22:08:37.898Z,11.99
2023-05-09T22:10:43.763Z,11.97
2023-05-09T22:12:49.549Z,11.97
2023-05-09T22:14:56.709Z,11.98
2023-05-09T22:17:01.940Z,11.97
2023-05-09T22:19:11.354Z,11.98
2023-05-09T22:21:16.869Z,11.97
2023-05-09T22:23:21.590Z,11.95
2023-05-09T22:25:25.307Z,11.94
2023-05-09T22:27:30.109Z,11.92
2023-05-09T22:29:34.756Z,11.93
2023-05-09T22:31:39.465Z,11.94
2023-05-09T22:33:44.171Z,11.93
2023-05-09T22:35:48.773Z,11.92
2023-05-09T22:37:55.141Z,11.91
2023-05-09T22:40:01.100Z,11.93
2023-05-09T22:42:04.961Z,11.93
2023-05-09T22:44:08.795Z,11.96
2023-05-09T22:46:13.381Z,11.96
2023-05-09T22:48:17.558Z,11.95
2023-05-09T22:50:22.001Z,11.94
2023-05-09T22:52:26.494Z,11.93
2023-05-09T22:54:31.836Z,11.93
2023-05-09T22:56:35.814Z,11.93
2023-05-09T22:58:39.949Z,11.93
2023-05-09T23:00:43.674Z,11.92
2023-05-09T23:02:47.483Z,11.92
2023-05-09T23:04:51.405Z,11.92
2023-05-09T23:06:56.893Z,11.94
2023-05-09T23:09:02.262Z,11.93
2023-05-09T23:11:07.781Z,11.95
2023-05-09T23:13:13.146Z,11.96
2023-05-09T23:15:17.474Z,11.99
2023-05-09T23:17:22.394Z,11.99
2023-05-09T23:19:25.705Z,11.96
2023-05-09T23:21:29.461Z,11.95
2023-05-09T23:23:33.443Z,11.94
2023-05-09T23:25:36.868Z,11.94
2023-05-09T23:27:44.800Z,11.92
2023-05-09T23:29:48.892Z,11.91
2023-05-09T23:31:52.568Z,11.88
2023-05-09T23:33:56.193Z,11.87
2023-05-09T23:36:00.389Z,11.83
2023-05-09T23:38:05.297Z,11.82
2023-05-09T23:40:10.318Z,11.83
2023-05-09T23:42:13.932Z,11.80
2023-05-09T23:44:18.973Z,11.77
2023-05-09T23:46:22.731Z,11.75
2023-05-09T23:48:26.904Z,11.71
2023-05-09T23:50:31.908Z,11.70
2023-05-09T23:52:35.365Z,11.68
2023-05-09T23:54:40.714Z,11.67
2023-05-09T23:56:44.463Z,11.69
2023-05-09T23:58:47.989Z,11.70
